sensor_id;sensor_type;location;lat;lon;timestamp;P1;durP1;ratioP1;P2;durP2;ratioP2
20138;SDS011;10230;51.502;10.800;2023-07-22T00:01:11;7.32;;;4.50;;
20138;SDS011;10230;51.502;10.800;2023-07-22T00:03:37;5.32;;;4.82;;
20138;SDS011;10230;51.502;10.800;2023-07-22T00:06:06;6.00;;;5.18;;
20138;SDS011;10230;51.502;10.800;2023-07-22T00:08:33;6.18;;;5.07;;
20138;SDS011;10230;51.502;10.800;2023-07-22T00:10:59;5.07;;;4.32;;
20138;SDS011;10230;51.502;10.800;2023-07-22T00:13:25;6.22;;;4.70;;
20138;SDS011;10230;51.502;10.800;2023-07-22T00:15:55;5.15;;;4.60;;
20138;SDS011;10230;51.502;10.800;2023-07-22T00:18:21;5.10;;;4.25;;
20138;SDS011;10230;51.502;10.800;2023-07-22T00:20:48;6.15;;;5.38;;
20138;SDS011;10230;51.502;10.800;2023-07-22T00:23:15;15.05;;;10.75;;
20138;SDS011;10230;51.502;10.800;2023-07-22T00:25:41;8.38;;;6.55;;
20138;SDS011;10230;51.502;10.800;2023-07-22T00:28:07;6.90;;;5.88;;
20138;SDS011;10230;51.502;10.800;2023-07-22T00:30:33;7.50;;;5.25;;
20138;SDS011;10230;51.502;10.800;2023-07-22T00:33:00;9.40;;;5.97;;
20138;SDS011;10230;51.502;10.800;2023-07-22T00:35:26;7.35;;;6.03;;
20138;SDS011;10230;51.502;10.800;2023-07-22T00:37:52;7.85;;;5.40;;
20138;SDS011;10230;51.502;10.800;2023-07-22T00:40:18;5.40;;;4.80;;
20138;SDS011;10230;51.502;10.800;2023-07-22T00:42:44;7.43;;;5.50;;
20138;SDS011;10230;51.502;10.800;2023-07-22T00:45:10;6.45;;;5.25;;
20138;SDS011;10230;51.502;10.800;2023-07-22T00:47:37;5.25;;;4.50;;
20138;SDS011;10230;51.502;10.800;2023-07-22T00:50:04;7.28;;;4.45;;
20138;SDS011;10230;51.502;10.800;2023-07-22T00:52:31;6.45;;;5.00;;
20138;SDS011;10230;51.502;10.800;2023-07-22T00:54:57;8.80;;;6.00;;
20138;SDS011;10230;51.502;10.800;2023-07-22T00:57:24;7.70;;;5.97;;
20138;SDS011;10230;51.502;10.800;2023-07-22T00:59:50;7.20;;;4.80;;
20138;SDS011;10230;51.502;10.800;2023-07-22T01:02:16;6.72;;;4.65;;
20138;SDS011;10230;51.502;10.800;2023-07-22T01:04:42;9.73;;;6.00;;
20138;SDS011;10230;51.502;10.800;2023-07-22T01:07:08;9.63;;;6.00;;
20138;SDS011;10230;51.502;10.800;2023-07-22T01:09:38;9.23;;;5.78;;
20138;SDS011;10230;51.502;10.800;2023-07-22T01:12:04;8.88;;;5.72;;
20138;SDS011;10230;51.502;10.800;2023-07-22T01:14:32;7.18;;;6.03;;
20138;SDS011;10230;51.502;10.800;2023-07-22T01:16:58;8.45;;;6.10;;
20138;SDS011;10230;51.502;10.800;2023-07-22T01:19:25;7.13;;;5.55;;
20138;SDS011;10230;51.502;10.800;2023-07-22T01:21:51;8.85;;;4.95;;
20138;SDS011;10230;51.502;10.800;2023-07-22T01:24:18;8.52;;;6.13;;
20138;SDS011;10230;51.502;10.800;2023-07-22T01:26:44;10.50;;;6.70;;
20138;SDS011;10230;51.502;10.800;2023-07-22T01:29:10;11.40;;;6.82;;
20138;SDS011;10230;51.502;10.800;2023-07-22T01:31:37;7.95;;;5.75;;
20138;SDS011;10230;51.502;10.800;2023-07-22T01:34:04;8.43;;;5.95;;
20138;SDS011;10230;51.502;10.800;2023-07-22T01:36:30;9.32;;;6.88;;
20138;SDS011;10230;51.502;10.800;2023-07-22T01:38:57;9.80;;;6.63;;
20138;SDS011;10230;51.502;10.800;2023-07-22T01:41:23;20.10;;;6.80;;
20138;SDS011;10230;51.502;10.800;2023-07-22T01:43:49;9.10;;;7.03;;
20138;SDS011;10230;51.502;10.800;2023-07-22T01:46:15;12.38;;;6.63;;
20138;SDS011;10230;51.502;10.800;2023-07-22T01:48:41;12.57;;;6.57;;
20138;SDS011;10230;51.502;10.800;2023-07-22T01:51:07;9.48;;;5.55;;
20138;SDS011;10230;51.502;10.800;2023-07-22T01:53:33;8.35;;;6.40;;
20138;SDS011;10230;51.502;10.800;2023-07-22T01:56:00;8.60;;;6.07;;
20138;SDS011;10230;51.502;10.800;2023-07-22T01:58:26;9.45;;;6.38;;
20138;SDS011;10230;51.502;10.800;2023-07-22T02:00:52;9.77;;;6.40;;
20138;SDS011;10230;51.502;10.800;2023-07-22T02:03:18;10.47;;;5.73;;
20138;SDS011;10230;51.502;10.800;2023-07-22T02:05:45;9.55;;;6.93;;
20138;SDS011;10230;51.502;10.800;2023-07-22T02:08:11;11.43;;;6.00;;
20138;SDS011;10230;51.502;10.800;2023-07-22T02:10:37;10.20;;;5.82;;
20138;SDS011;10230;51.502;10.800;2023-07-22T02:13:03;10.30;;;6.03;;
20138;SDS011;10230;51.502;10.800;2023-07-22T02:15:29;10.70;;;6.43;;
20138;SDS011;10230;51.502;10.800;2023-07-22T02:17:55;9.47;;;6.17;;
20138;SDS011;10230;51.502;10.800;2023-07-22T02:20:21;11.50;;;5.45;;
20138;SDS011;10230;51.502;10.800;2023-07-22T02:22:48;13.97;;;7.17;;
20138;SDS011;10230;51.502;10.800;2023-07-22T02:25:14;10.52;;;5.15;;
20138;SDS011;10230;51.502;10.800;2023-07-22T02:27:40;5.90;;;4.65;;
20138;SDS011;10230;51.502;10.800;2023-07-22T02:30:07;11.60;;;5.82;;
20138;SDS011;10230;51.502;10.800;2023-07-22T02:32:39;9.85;;;5.45;;
20138;SDS011;10230;51.502;10.800;2023-07-22T02:35:06;8.52;;;5.25;;
20138;SDS011;10230;51.502;10.800;2023-07-22T02:37:32;9.13;;;6.10;;
20138;SDS011;10230;51.502;10.800;2023-07-22T02:39:59;9.23;;;6.17;;
20138;SDS011;10230;51.502;10.800;2023-07-22T02:42:25;9.88;;;6.22;;
20138;SDS011;10230;51.502;10.800;2023-07-22T02:44:51;8.50;;;5.67;;
20138;SDS011;10230;51.502;10.800;2023-07-22T02:47:17;9.20;;;5.73;;
20138;SDS011;10230;51.502;10.800;2023-07-22T02:49:43;11.25;;;6.78;;
20138;SDS011;10230;51.502;10.800;2023-07-22T02:52:10;11.23;;;6.03;;
20138;SDS011;10230;51.502;10.800;2023-07-22T02:54:39;7.75;;;5.55;;
20138;SDS011;10230;51.502;10.800;2023-07-22T02:57:05;10.68;;;6.97;;
20138;SDS011;10230;51.502;10.800;2023-07-22T02:59:31;11.27;;;6.03;;
20138;SDS011;10230;51.502;10.800;2023-07-22T03:01:58;10.00;;;6.53;;
20138;SDS011;10230;51.502;10.800;2023-07-22T03:04:24;11.45;;;6.72;;
20138;SDS011;10230;51.502;10.800;2023-07-22T03:06:50;12.33;;;6.83;;
20138;SDS011;10230;51.502;10.800;2023-07-22T03:09:17;10.30;;;7.30;;
20138;SDS011;10230;51.502;10.800;2023-07-22T03:11:43;13.10;;;8.13;;
20138;SDS011;10230;51.502;10.800;2023-07-22T03:14:09;13.23;;;7.20;;
20138;SDS011;10230;51.502;10.800;2023-07-22T03:16:35;12.85;;;7.10;;
20138;SDS011;10230;51.502;10.800;2023-07-22T03:19:01;13.63;;;8.23;;
20138;SDS011;10230;51.502;10.800;2023-07-22T03:21:27;9.17;;;5.93;;
20138;SDS011;10230;51.502;10.800;2023-07-22T03:23:53;13.50;;;7.93;;
20138;SDS011;10230;51.502;10.800;2023-07-22T03:26:19;11.17;;;6.93;;
20138;SDS011;10230;51.502;10.800;2023-07-22T03:28:45;8.18;;;6.03;;
20138;SDS011;10230;51.502;10.800;2023-07-22T03:31:11;11.23;;;5.53;;
20138;SDS011;10230;51.502;10.800;2023-07-22T03:33:37;10.25;;;6.22;;
20138;SDS011;10230;51.502;10.800;2023-07-22T03:36:03;12.67;;;6.97;;
20138;SDS011;10230;51.502;10.800;2023-07-22T03:38:29;10.70;;;7.27;;
20138;SDS011;10230;51.502;10.800;2023-07-22T03:40:56;12.00;;;6.28;;
20138;SDS011;10230;51.502;10.800;2023-07-22T03:43:21;8.73;;;5.97;;
20138;SDS011;10230;51.502;10.800;2023-07-22T03:45:48;11.38;;;6.88;;
20138;SDS011;10230;51.502;10.800;2023-07-22T03:48:14;11.37;;;6.80;;
20138;SDS011;10230;51.502;10.800;2023-07-22T03:50:40;12.90;;;7.15;;
20138;SDS011;10230;51.502;10.800;2023-07-22T03:53:06;11.07;;;6.30;;
20138;SDS011;10230;51.502;10.800;2023-07-22T03:55:32;9.40;;;5.87;;
20138;SDS011;10230;51.502;10.800;2023-07-22T03:57:58;9.57;;;6.53;;
20138;SDS011;10230;51.502;10.800;2023-07-22T04:00:23;7.67;;;5.23;;
20138;SDS011;10230;51.502;10.800;2023-07-22T04:02:50;22.60;;;7.35;;
20138;SDS011;10230;51.502;10.800;2023-07-22T04:05:15;8.85;;;6.00;;
20138;SDS011;10230;51.502;10.800;2023-07-22T04:07:41;11.33;;;5.57;;
20138;SDS011;10230;51.502;10.800;2023-07-22T04:10:07;12.83;;;6.33;;
20138;SDS011;10230;51.502;10.800;2023-07-22T04:12:34;11.80;;;6.30;;
20138;SDS011;10230;51.502;10.800;2023-07-22T04:15:00;8.40;;;5.40;;
20138;SDS011;10230;51.502;10.800;2023-07-22T04:17:26;6.57;;;5.23;;
20138;SDS011;10230;51.502;10.800;2023-07-22T04:19:52;11.20;;;6.07;;
20138;SDS011;10230;51.502;10.800;2023-07-22T04:22:18;12.48;;;6.10;;
20138;SDS011;10230;51.502;10.800;2023-07-22T04:24:44;14.80;;;7.37;;
20138;SDS011;10230;51.502;10.800;2023-07-22T04:27:13;10.87;;;5.07;;
20138;SDS011;10230;51.502;10.800;2023-07-22T04:29:39;14.97;;;6.07;;
20138;SDS011;10230;51.502;10.800;2023-07-22T04:32:06;9.98;;;5.95;;
20138;SDS011;10230;51.502;10.800;2023-07-22T04:34:33;9.25;;;5.40;;
20138;SDS011;10230;51.502;10.800;2023-07-22T04:36:59;11.60;;;6.00;;
20138;SDS011;10230;51.502;10.800;2023-07-22T04:39:26;8.05;;;5.10;;
20138;SDS011;10230;51.502;10.800;2023-07-22T04:41:53;10.03;;;5.77;;
20138;SDS011;10230;51.502;10.800;2023-07-22T04:44:19;9.30;;;5.70;;
20138;SDS011;10230;51.502;10.800;2023-07-22T04:46:45;12.05;;;5.07;;
20138;SDS011;10230;51.502;10.800;2023-07-22T04:49:12;9.20;;;5.45;;
20138;SDS011;10230;51.502;10.800;2023-07-22T04:51:38;9.70;;;5.13;;
20138;SDS011;10230;51.502;10.800;2023-07-22T04:54:04;9.52;;;4.97;;
20138;SDS011;10230;51.502;10.800;2023-07-22T04:56:30;9.60;;;5.47;;
20138;SDS011;10230;51.502;10.800;2023-07-22T04:58:56;11.05;;;5.05;;
20138;SDS011;10230;51.502;10.800;2023-07-22T05:01:22;13.43;;;6.00;;
20138;SDS011;10230;51.502;10.800;2023-07-22T05:03:48;10.90;;;5.30;;
20138;SDS011;10230;51.502;10.800;2023-07-22T05:06:14;9.50;;;4.80;;
20138;SDS011;10230;51.502;10.800;2023-07-22T05:08:40;9.35;;;5.10;;
20138;SDS011;10230;51.502;10.800;2023-07-22T05:11:06;10.38;;;5.53;;
20138;SDS011;10230;51.502;10.800;2023-07-22T05:13:32;10.60;;;5.05;;
20138;SDS011;10230;51.502;10.800;2023-07-22T05:15:58;11.68;;;5.13;;
20138;SDS011;10230;51.502;10.800;2023-07-22T05:18:24;5.97;;;4.15;;
20138;SDS011;10230;51.502;10.800;2023-07-22T05:20:50;8.57;;;5.78;;
20138;SDS011;10230;51.502;10.800;2023-07-22T05:23:16;9.93;;;4.63;;
20138;SDS011;10230;51.502;10.800;2023-07-22T05:25:42;13.60;;;5.82;;
20138;SDS011;10230;51.502;10.800;2023-07-22T05:28:08;11.05;;;5.40;;
20138;SDS011;10230;51.502;10.800;2023-07-22T05:30:34;8.43;;;5.65;;
20138;SDS011;10230;51.502;10.800;2023-07-22T05:33:00;10.18;;;4.47;;
20138;SDS011;10230;51.502;10.800;2023-07-22T05:35:26;6.35;;;4.65;;
20138;SDS011;10230;51.502;10.800;2023-07-22T05:37:52;7.07;;;4.50;;
20138;SDS011;10230;51.502;10.800;2023-07-22T05:40:19;8.70;;;4.82;;
20138;SDS011;10230;51.502;10.800;2023-07-22T05:42:45;8.65;;;4.50;;
20138;SDS011;10230;51.502;10.800;2023-07-22T05:45:11;8.25;;;4.13;;
20138;SDS011;10230;51.502;10.800;2023-07-22T05:47:40;8.38;;;4.78;;
20138;SDS011;10230;51.502;10.800;2023-07-22T05:50:06;8.05;;;4.75;;
20138;SDS011;10230;51.502;10.800;2023-07-22T05:52:32;6.18;;;4.00;;
20138;SDS011;10230;51.502;10.800;2023-07-22T05:54:58;6.85;;;4.22;;
20138;SDS011;10230;51.502;10.800;2023-07-22T05:57:24;6.18;;;3.95;;
20138;SDS011;10230;51.502;10.800;2023-07-22T05:59:50;7.20;;;4.15;;
20138;SDS011;10230;51.502;10.800;2023-07-22T06:02:16;9.07;;;5.40;;
20138;SDS011;10230;51.502;10.800;2023-07-22T06:04:43;7.57;;;4.80;;
20138;SDS011;10230;51.502;10.800;2023-07-22T06:07:09;10.50;;;5.65;;
20138;SDS011;10230;51.502;10.800;2023-07-22T06:09:35;8.95;;;4.43;;
20138;SDS011;10230;51.502;10.800;2023-07-22T06:12:01;8.57;;;4.50;;
20138;SDS011;10230;51.502;10.800;2023-07-22T06:14:27;8.45;;;4.72;;
20138;SDS011;10230;51.502;10.800;2023-07-22T06:16:53;8.75;;;4.82;;
20138;SDS011;10230;51.502;10.800;2023-07-22T06:19:19;5.78;;;4.30;;
20138;SDS011;10230;51.502;10.800;2023-07-22T06:21:45;5.32;;;3.92;;
20138;SDS011;10230;51.502;10.800;2023-07-22T06:24:11;7.22;;;3.92;;
20138;SDS011;10230;51.502;10.800;2023-07-22T06:26:37;4.93;;;3.70;;
20138;SDS011;10230;51.502;10.800;2023-07-22T06:29:03;6.63;;;3.95;;
20138;SDS011;10230;51.502;10.800;2023-07-22T06:31:29;6.05;;;3.72;;
20138;SDS011;10230;51.502;10.800;2023-07-22T06:33:58;6.32;;;3.10;;
20138;SDS011;10230;51.502;10.800;2023-07-22T06:36:24;5.85;;;3.88;;
20138;SDS011;10230;51.502;10.800;2023-07-22T06:38:50;4.80;;;3.30;;
20138;SDS011;10230;51.502;10.800;2023-07-22T06:41:17;7.50;;;3.88;;
20138;SDS011;10230;51.502;10.800;2023-07-22T06:43:44;4.70;;;3.50;;
20138;SDS011;10230;51.502;10.800;2023-07-22T06:46:10;5.60;;;3.90;;
20138;SDS011;10230;51.502;10.800;2023-07-22T06:48:36;5.40;;;3.38;;
20138;SDS011;10230;51.502;10.800;2023-07-22T06:51:02;4.18;;;3.13;;
20138;SDS011;10230;51.502;10.800;2023-07-22T06:53:28;3.95;;;3.35;;
20138;SDS011;10230;51.502;10.800;2023-07-22T06:55:54;4.38;;;2.80;;
20138;SDS011;10230;51.502;10.800;2023-07-22T06:58:20;6.05;;;3.17;;
20138;SDS011;10230;51.502;10.800;2023-07-22T07:00:47;4.72;;;3.40;;
20138;SDS011;10230;51.502;10.800;2023-07-22T07:03:13;4.18;;;2.90;;
20138;SDS011;10230;51.502;10.800;2023-07-22T07:05:39;4.28;;;2.40;;
20138;SDS011;10230;51.502;10.800;2023-07-22T07:08:06;4.13;;;3.17;;
20138;SDS011;10230;51.502;10.800;2023-07-22T07:10:36;4.20;;;2.97;;
20138;SDS011;10230;51.502;10.800;2023-07-22T07:13:02;4.82;;;2.85;;
20138;SDS011;10230;51.502;10.800;2023-07-22T07:15:28;4.93;;;3.13;;
20138;SDS011;10230;51.502;10.800;2023-07-22T07:17:54;3.50;;;2.80;;
20138;SDS011;10230;51.502;10.800;2023-07-22T07:20:20;6.63;;;3.22;;
20138;SDS011;10230;51.502;10.800;2023-07-22T07:22:46;5.32;;;2.78;;
20138;SDS011;10230;51.502;10.800;2023-07-22T07:25:12;4.43;;;2.92;;
20138;SDS011;10230;51.502;10.800;2023-07-22T07:27:40;4.80;;;2.63;;
20138;SDS011;10230;51.502;10.800;2023-07-22T07:30:06;4.22;;;3.00;;
20138;SDS011;10230;51.502;10.800;2023-07-22T07:32:33;7.95;;;3.53;;
20138;SDS011;10230;51.502;10.800;2023-07-22T07:34:59;4.97;;;2.95;;
20138;SDS011;10230;51.502;10.800;2023-07-22T07:37:25;4.03;;;3.10;;
20138;SDS011;10230;51.502;10.800;2023-07-22T07:39:51;4.78;;;3.00;;
20138;SDS011;10230;51.502;10.800;2023-07-22T07:42:17;4.20;;;3.53;;
20138;SDS011;10230;51.502;10.800;2023-07-22T07:44:44;3.67;;;3.25;;
20138;SDS011;10230;51.502;10.800;2023-07-22T07:47:10;3.95;;;3.42;;
20138;SDS011;10230;51.502;10.800;2023-07-22T07:49:36;3.28;;;2.72;;
20138;SDS011;10230;51.502;10.800;2023-07-22T07:52:02;3.45;;;3.05;;
20138;SDS011;10230;51.502;10.800;2023-07-22T07:54:28;7.75;;;3.33;;
20138;SDS011;10230;51.502;10.800;2023-07-22T07:56:54;5.07;;;2.70;;
20138;SDS011;10230;51.502;10.800;2023-07-22T07:59:20;4.07;;;2.60;;
20138;SDS011;10230;51.502;10.800;2023-07-22T08:01:46;4.00;;;2.45;;
20138;SDS011;10230;51.502;10.800;2023-07-22T08:04:12;4.18;;;2.90;;
20138;SDS011;10230;51.502;10.800;2023-07-22T08:06:38;4.55;;;2.75;;
20138;SDS011;10230;51.502;10.800;2023-07-22T08:09:04;4.05;;;2.70;;
20138;SDS011;10230;51.502;10.800;2023-07-22T08:11:30;3.35;;;2.55;;
20138;SDS011;10230;51.502;10.800;2023-07-22T08:13:56;3.22;;;2.85;;
20138;SDS011;10230;51.502;10.800;2023-07-22T08:16:22;3.78;;;2.58;;
20138;SDS011;10230;51.502;10.800;2023-07-22T08:18:49;2.25;;;1.98;;
20138;SDS011;10230;51.502;10.800;2023-07-22T08:21:15;3.22;;;2.92;;
20138;SDS011;10230;51.502;10.800;2023-07-22T08:23:41;3.85;;;2.78;;
20138;SDS011;10230;51.502;10.800;2023-07-22T08:26:10;3.00;;;2.40;;
20138;SDS011;10230;51.502;10.800;2023-07-22T08:28:37;3.33;;;2.60;;
20138;SDS011;10230;51.502;10.800;2023-07-22T08:31:03;3.58;;;2.97;;
20138;SDS011;10230;51.502;10.800;2023-07-22T08:33:29;3.67;;;3.22;;
20138;SDS011;10230;51.502;10.800;2023-07-22T08:35:56;3.22;;;2.80;;
20138;SDS011;10230;51.502;10.800;2023-07-22T08:38:22;4.22;;;2.60;;
20138;SDS011;10230;51.502;10.800;2023-07-22T08:40:48;3.03;;;2.72;;
20138;SDS011;10230;51.502;10.800;2023-07-22T08:43:16;3.53;;;2.60;;
20138;SDS011;10230;51.502;10.800;2023-07-22T08:45:44;5.68;;;3.08;;
20138;SDS011;10230;51.502;10.800;2023-07-22T08:48:11;3.85;;;3.22;;
20138;SDS011;10230;51.502;10.800;2023-07-22T08:50:52;4.10;;;2.85;;
20138;SDS011;10230;51.502;10.800;2023-07-22T08:53:19;3.72;;;3.38;;
20138;SDS011;10230;51.502;10.800;2023-07-22T08:55:45;3.10;;;2.38;;
20138;SDS011;10230;51.502;10.800;2023-07-22T08:58:12;3.20;;;2.90;;
20138;SDS011;10230;51.502;10.800;2023-07-22T09:00:39;3.65;;;3.05;;
20138;SDS011;10230;51.502;10.800;2023-07-22T09:03:06;3.45;;;3.10;;
20138;SDS011;10230;51.502;10.800;2023-07-22T09:05:32;5.10;;;3.17;;
20138;SDS011;10230;51.502;10.800;2023-07-22T09:07:59;3.75;;;3.40;;
20138;SDS011;10230;51.502;10.800;2023-07-22T09:10:27;4.28;;;3.45;;
20138;SDS011;10230;51.502;10.800;2023-07-22T09:12:53;5.10;;;3.45;;
20138;SDS011;10230;51.502;10.800;2023-07-22T09:15:19;3.58;;;3.28;;
20138;SDS011;10230;51.502;10.800;2023-07-22T09:17:46;3.28;;;2.97;;
20138;SDS011;10230;51.502;10.800;2023-07-22T09:20:12;4.05;;;3.33;;
20138;SDS011;10230;51.502;10.800;2023-07-22T09:22:43;4.22;;;3.55;;
20138;SDS011;10230;51.502;10.800;2023-07-22T09:27:39;4.13;;;3.45;;
20138;SDS011;10230;51.502;10.800;2023-07-22T09:30:22;4.30;;;3.75;;
20138;SDS011;10230;51.502;10.800;2023-07-22T09:32:48;4.38;;;3.70;;
20138;SDS011;10230;51.502;10.800;2023-07-22T09:35:14;3.72;;;2.97;;
20138;SDS011;10230;51.502;10.800;2023-07-22T09:37:40;3.83;;;3.15;;
20138;SDS011;10230;51.502;10.800;2023-07-22T09:42:45;4.30;;;3.88;;
20138;SDS011;10230;51.502;10.800;2023-07-22T09:45:11;6.38;;;3.83;;
20138;SDS011;10230;51.502;10.800;2023-07-22T09:47:40;4.72;;;3.90;;
20138;SDS011;10230;51.502;10.800;2023-07-22T09:50:08;4.00;;;3.50;;
20138;SDS011;10230;51.502;10.800;2023-07-22T09:52:40;4.20;;;3.80;;
20138;SDS011;10230;51.502;10.800;2023-07-22T09:55:06;4.68;;;4.15;;
20138;SDS011;10230;51.502;10.800;2023-07-22T09:57:33;4.93;;;4.40;;
20138;SDS011;10230;51.502;10.800;2023-07-22T09:59:59;4.70;;;4.30;;
20138;SDS011;10230;51.502;10.800;2023-07-22T10:02:25;4.43;;;4.03;;
20138;SDS011;10230;51.502;10.800;2023-07-22T10:04:52;6.32;;;3.75;;
20138;SDS011;10230;51.502;10.800;2023-07-22T10:07:18;5.97;;;3.95;;
20138;SDS011;10230;51.502;10.800;2023-07-22T10:09:45;4.93;;;4.20;;
20138;SDS011;10230;51.502;10.800;2023-07-22T10:12:12;5.72;;;4.38;;
20138;SDS011;10230;51.502;10.800;2023-07-22T10:14:39;5.30;;;4.07;;
20138;SDS011;10230;51.502;10.800;2023-07-22T10:17:06;4.50;;;4.10;;
20138;SDS011;10230;51.502;10.800;2023-07-22T10:19:34;4.40;;;3.92;;
20138;SDS011;10230;51.502;10.800;2023-07-22T10:22:00;4.82;;;3.55;;
20138;SDS011;10230;51.502;10.800;2023-07-22T10:24:27;5.60;;;4.55;;
20138;SDS011;10230;51.502;10.800;2023-07-22T10:26:53;5.93;;;4.65;;
20138;SDS011;10230;51.502;10.800;2023-07-22T10:29:20;5.00;;;3.60;;
20138;SDS011;10230;51.502;10.800;2023-07-22T10:31:46;5.95;;;3.85;;
20138;SDS011;10230;51.502;10.800;2023-07-22T10:34:20;3.97;;;3.58;;
20138;SDS011;10230;51.502;10.800;2023-07-22T10:36:47;4.00;;;3.60;;
20138;SDS011;10230;51.502;10.800;2023-07-22T10:39:24;4.47;;;3.20;;
20138;SDS011;10230;51.502;10.800;2023-07-22T10:41:57;5.32;;;3.42;;
20138;SDS011;10230;51.502;10.800;2023-07-22T10:44:25;4.50;;;3.38;;
20138;SDS011;10230;51.502;10.800;2023-07-22T10:46:57;4.90;;;3.10;;
20138;SDS011;10230;51.502;10.800;2023-07-22T10:49:24;4.78;;;3.00;;
20138;SDS011;10230;51.502;10.800;2023-07-22T10:51:51;3.28;;;2.92;;
20138;SDS011;10230;51.502;10.800;2023-07-22T10:54:31;4.05;;;2.78;;
20138;SDS011;10230;51.502;10.800;2023-07-22T10:57:43;4.95;;;3.40;;
20138;SDS011;10230;51.502;10.800;2023-07-22T10:59:51;3.83;;;3.13;;
20138;SDS011;10230;51.502;10.800;2023-07-22T11:02:22;3.10;;;2.58;;
20138;SDS011;10230;51.502;10.800;2023-07-22T11:04:49;3.67;;;2.90;;
20138;SDS011;10230;51.502;10.800;2023-07-22T11:07:15;4.80;;;3.13;;
20138;SDS011;10230;51.502;10.800;2023-07-22T11:09:41;3.75;;;3.17;;
20138;SDS011;10230;51.502;10.800;2023-07-22T11:12:10;4.35;;;3.17;;
20138;SDS011;10230;51.502;10.800;2023-07-22T11:14:38;4.70;;;3.00;;
20138;SDS011;10230;51.502;10.800;2023-07-22T11:17:05;5.53;;;4.55;;
20138;SDS011;10230;51.502;10.800;2023-07-22T11:19:33;4.78;;;4.10;;
20138;SDS011;10230;51.502;10.800;2023-07-22T11:21:59;4.13;;;3.38;;
20138;SDS011;10230;51.502;10.800;2023-07-22T11:24:25;4.68;;;3.28;;
20138;SDS011;10230;51.502;10.800;2023-07-22T11:26:52;4.68;;;3.83;;
20138;SDS011;10230;51.502;10.800;2023-07-22T11:29:19;3.40;;;2.80;;
20138;SDS011;10230;51.502;10.800;2023-07-22T11:31:45;3.10;;;2.60;;
20138;SDS011;10230;51.502;10.800;2023-07-22T11:34:13;3.88;;;3.13;;
20138;SDS011;10230;51.502;10.800;2023-07-22T11:36:49;4.63;;;3.28;;
20138;SDS011;10230;51.502;10.800;2023-07-22T11:39:17;4.10;;;3.25;;
20138;SDS011;10230;51.502;10.800;2023-07-22T11:41:47;3.75;;;3.28;;
20138;SDS011;10230;51.502;10.800;2023-07-22T11:44:15;4.97;;;3.47;;
20138;SDS011;10230;51.502;10.800;2023-07-22T11:46:51;4.45;;;3.63;;
20138;SDS011;10230;51.502;10.800;2023-07-22T11:49:38;4.68;;;3.47;;
20138;SDS011;10230;51.502;10.800;2023-07-22T11:52:05;4.35;;;3.45;;
20138;SDS011;10230;51.502;10.800;2023-07-22T11:54:32;3.38;;;3.08;;
20138;SDS011;10230;51.502;10.800;2023-07-22T11:59:46;3.47;;;2.80;;
20138;SDS011;10230;51.502;10.800;2023-07-22T12:02:13;4.20;;;3.45;;
20138;SDS011;10230;51.502;10.800;2023-07-22T12:04:41;3.72;;;3.28;;
20138;SDS011;10230;51.502;10.800;2023-07-22T12:10:06;3.33;;;3.03;;
20138;SDS011;10230;51.502;10.800;2023-07-22T12:12:42;5.55;;;4.28;;
20138;SDS011;10230;51.502;10.800;2023-07-22T12:15:14;4.40;;;3.53;;
20138;SDS011;10230;51.502;10.800;2023-07-22T12:20:13;3.50;;;3.10;;
20138;SDS011;10230;51.502;10.800;2023-07-22T12:22:40;4.25;;;2.90;;
20138;SDS011;10230;51.502;10.800;2023-07-22T12:25:06;4.80;;;3.20;;
20138;SDS011;10230;51.502;10.800;2023-07-22T12:27:32;6.40;;;3.92;;
20138;SDS011;10230;51.502;10.800;2023-07-22T12:29:58;3.47;;;3.17;;
20138;SDS011;10230;51.502;10.800;2023-07-22T12:32:23;4.07;;;3.33;;
20138;SDS011;10230;51.502;10.800;2023-07-22T12:34:49;3.95;;;3.13;;
20138;SDS011;10230;51.502;10.800;2023-07-22T12:37:15;2.97;;;2.65;;
20138;SDS011;10230;51.502;10.800;2023-07-22T12:39:45;3.25;;;2.83;;
20138;SDS011;10230;51.502;10.800;2023-07-22T12:42:11;3.20;;;2.90;;
20138;SDS011;10230;51.502;10.800;2023-07-22T12:44:36;4.40;;;3.85;;
20138;SDS011;10230;51.502;10.800;2023-07-22T12:47:02;4.75;;;4.32;;
20138;SDS011;10230;51.502;10.800;2023-07-22T12:49:28;5.32;;;4.70;;
20138;SDS011;10230;51.502;10.800;2023-07-22T12:51:53;3.83;;;3.08;;
20138;SDS011;10230;51.502;10.800;2023-07-22T12:54:19;3.28;;;2.55;;
20138;SDS011;10230;51.502;10.800;2023-07-22T12:56:45;3.15;;;2.85;;
20138;SDS011;10230;51.502;10.800;2023-07-22T12:59:11;3.83;;;2.85;;
20138;SDS011;10230;51.502;10.800;2023-07-22T13:01:36;3.60;;;2.45;;
20138;SDS011;10230;51.502;10.800;2023-07-22T13:04:04;2.83;;;2.58;;
20138;SDS011;10230;51.502;10.800;2023-07-22T13:06:30;3.85;;;2.83;;
20138;SDS011;10230;51.502;10.800;2023-07-22T13:08:56;2.83;;;2.50;;
20138;SDS011;10230;51.502;10.800;2023-07-22T13:11:21;4.47;;;2.28;;
20138;SDS011;10230;51.502;10.800;2023-07-22T13:13:47;4.45;;;3.22;;
20138;SDS011;10230;51.502;10.800;2023-07-22T13:16:12;3.22;;;2.92;;
20138;SDS011;10230;51.502;10.800;2023-07-22T13:18:38;4.38;;;3.80;;
20138;SDS011;10230;51.502;10.800;2023-07-22T13:21:04;3.53;;;2.88;;
20138;SDS011;10230;51.502;10.800;2023-07-22T13:23:30;3.15;;;2.53;;
20138;SDS011;10230;51.502;10.800;2023-07-22T13:25:55;2.95;;;2.65;;
20138;SDS011;10230;51.502;10.800;2023-07-22T13:28:21;3.20;;;2.45;;
20138;SDS011;10230;51.502;10.800;2023-07-22T13:30:46;3.53;;;2.78;;
20138;SDS011;10230;51.502;10.800;2023-07-22T13:33:12;2.75;;;2.30;;
20138;SDS011;10230;51.502;10.800;2023-07-22T13:35:38;2.92;;;2.47;;
20138;SDS011;10230;51.502;10.800;2023-07-22T13:38:04;2.40;;;2.15;;
20138;SDS011;10230;51.502;10.800;2023-07-22T13:40:30;3.25;;;2.10;;
20138;SDS011;10230;51.502;10.800;2023-07-22T13:42:57;2.88;;;2.20;;
20138;SDS011;10230;51.502;10.800;2023-07-22T13:45:23;3.10;;;1.92;;
20138;SDS011;10230;51.502;10.800;2023-07-22T13:47:49;2.90;;;2.38;;
20138;SDS011;10230;51.502;10.800;2023-07-22T13:50:15;3.33;;;2.00;;
20138;SDS011;10230;51.502;10.800;2023-07-22T13:52:41;2.90;;;2.30;;
20138;SDS011;10230;51.502;10.800;2023-07-22T13:55:08;2.78;;;2.08;;
20138;SDS011;10230;51.502;10.800;2023-07-22T13:57:34;2.90;;;2.03;;
20138;SDS011;10230;51.502;10.800;2023-07-22T14:00:00;3.63;;;2.20;;
20138;SDS011;10230;51.502;10.800;2023-07-22T14:02:26;2.33;;;2.13;;
20138;SDS011;10230;51.502;10.800;2023-07-22T14:04:52;2.22;;;1.95;;
20138;SDS011;10230;51.502;10.800;2023-07-22T14:07:18;2.30;;;1.98;;
20138;SDS011;10230;51.502;10.800;2023-07-22T14:09:44;2.10;;;1.90;;
20138;SDS011;10230;51.502;10.800;2023-07-22T14:12:10;2.53;;;2.08;;
20138;SDS011;10230;51.502;10.800;2023-07-22T14:14:36;2.33;;;1.90;;
20138;SDS011;10230;51.502;10.800;2023-07-22T14:17:02;3.95;;;2.08;;
20138;SDS011;10230;51.502;10.800;2023-07-22T14:19:29;2.60;;;2.05;;
20138;SDS011;10230;51.502;10.800;2023-07-22T14:21:55;2.25;;;1.92;;
20138;SDS011;10230;51.502;10.800;2023-07-22T14:24:21;2.40;;;2.00;;
20138;SDS011;10230;51.502;10.800;2023-07-22T14:26:47;2.88;;;2.33;;
20138;SDS011;10230;51.502;10.800;2023-07-22T14:29:13;6.18;;;2.15;;
20138;SDS011;10230;51.502;10.800;2023-07-22T14:31:41;3.22;;;1.80;;
20138;SDS011;10230;51.502;10.800;2023-07-22T14:34:07;2.65;;;2.00;;
20138;SDS011;10230;51.502;10.800;2023-07-22T14:36:34;2.05;;;1.83;;
20138;SDS011;10230;51.502;10.800;2023-07-22T14:38:59;2.80;;;2.30;;
20138;SDS011;10230;51.502;10.800;2023-07-22T14:41:25;2.17;;;1.98;;
20138;SDS011;10230;51.502;10.800;2023-07-22T14:43:51;2.08;;;1.70;;